createdAt,value
2018-09-21T00:00:07.059Z,23.30
2018-09-21T00:05:10.460Z,23.40
2018-09-21T00:10:13.931Z,23.30
2018-09-21T00:15:17.232Z,23.30
2018-09-21T00:20:20.476Z,23.30
2018-09-21T00:25:23.707Z,22.90
2018-09-21T00:30:26.972Z,23.30
2018-09-21T00:35:30.219Z,23.30
2018-09-21T00:40:33.608Z,22.80
2018-09-21T00:45:36.847Z,23.00
2018-09-21T00:50:40.129Z,23.30
2018-09-21T00:55:43.399Z,23.10
2018-09-21T01:00:46.625Z,23.20
2018-09-21T01:05:49.866Z,23.20
2018-09-21T01:10:53.086Z,23.20
2018-09-21T01:15:56.324Z,22.90
2018-09-21T01:20:59.576Z,23.10
2018-09-21T01:26:02.856Z,23.20
2018-09-21T01:31:06.433Z,23.20
2018-09-21T01:36:09.956Z,23.20
2018-09-21T01:41:13.360Z,22.80
2018-09-21T01:46:16.716Z,23.20
2018-09-21T01:51:20.037Z,23.10
2018-09-21T01:56:23.476Z,23.10
2018-09-21T02:01:26.892Z,23.10
2018-09-21T02:06:30.401Z,23.10
2018-09-21T02:11:33.836Z,23.10
2018-09-21T02:16:37.564Z,23.00
2018-09-21T02:21:40.911Z,23.10
2018-09-21T02:26:44.340Z,22.90
2018-09-21T02:31:48.344Z,22.60
2018-09-21T02:36:51.664Z,23.00
2018-09-21T02:41:54.988Z,23.00
2018-09-21T02:46:58.789Z,23.30
2018-09-21T02:52:02.292Z,22.80
2018-09-21T02:57:05.816Z,23.00
2018-09-21T03:02:09.112Z,23.00
2018-09-21T03:07:12.427Z,23.00
2018-09-21T03:12:15.820Z,22.90
2018-09-21T03:17:19.089Z,22.90
2018-09-21T03:22:22.394Z,23.00
2018-09-21T03:27:25.720Z,23.00
2018-09-21T03:32:29.109Z,23.10
2018-09-21T03:37:32.486Z,22.70
2018-09-21T03:42:36.421Z,22.60
2018-09-21T03:47:39.816Z,23.00
2018-09-21T03:52:43.199Z,22.80
2018-09-21T03:57:46.528Z,22.80
2018-09-21T04:02:49.871Z,22.70
2018-09-21T04:07:53.228Z,23.10
2018-09-21T04:12:56.552Z,22.90
2018-09-21T04:17:59.824Z,22.80
2018-09-21T04:23:03.710Z,23.00
2018-09-21T04:28:07.007Z,22.90
2018-09-21T04:33:10.551Z,22.60
2018-09-21T04:38:13.968Z,22.70
2018-09-21T04:43:17.284Z,23.00
2018-09-21T04:48:20.736Z,23.10
2018-09-21T04:53:24.574Z,22.90
2018-09-21T04:58:27.868Z,23.00
2018-09-21T05:03:31.188Z,22.90
2018-09-21T05:08:35.157Z,22.70
2018-09-21T05:13:38.591Z,22.60
2018-09-21T05:18:41.869Z,22.80
2018-09-21T05:23:45.638Z,22.80
2018-09-21T05:28:49.242Z,22.80
2018-09-21T05:33:52.750Z,22.90
2018-09-21T05:38:56.080Z,22.90
2018-09-21T05:43:59.340Z,22.80
2018-09-21T05:49:02.592Z,22.70
2018-09-21T05:54:06.209Z,22.90
2018-09-21T05:59:10.128Z,22.90
2018-09-21T06:04:13.669Z,22.90
2018-09-21T06:09:17.143Z,22.90
2018-09-21T06:14:24.196Z,22.90
2018-09-21T06:19:27.717Z,22.90
2018-09-21T06:24:31.192Z,22.80
2018-09-21T06:29:34.758Z,22.80
2018-09-21T06:34:38.152Z,22.90
2018-09-21T06:39:41.451Z,22.70
2018-09-21T06:44:44.695Z,23.10
2018-09-21T06:49:48.008Z,22.90
2018-09-21T06:54:51.269Z,23.00
2018-09-21T06:59:54.564Z,23.10
2018-09-21T07:05:03.331Z,23.00
2018-09-21T07:10:06.689Z,23.00
2018-09-21T07:15:10.315Z,23.00
2018-09-21T07:20:13.621Z,22.80
2018-09-21T07:25:16.888Z,23.10
2018-09-21T07:30:20.164Z,23.10
2018-09-21T07:35:23.724Z,23.10
2018-09-21T07:40:27.010Z,23.30
2018-09-21T07:45:30.269Z,22.80
2018-09-21T07:50:33.606Z,23.10
2018-09-21T07:55:36.808Z,23.10
2018-09-21T08:00:40.040Z,23.10
2018-09-21T08:05:43.299Z,23.30
2018-09-21T08:10:46.595Z,23.10
2018-09-21T08:15:49.824Z,23.20
2018-09-21T08:20:53.106Z,23.20
2018-09-21T08:25:56.748Z,23.30
2018-09-21T08:31:00.051Z,23.30
2018-09-21T08:36:03.315Z,23.30
2018-09-21T08:41:06.697Z,23.50
2018-09-21T08:46:09.992Z,23.30
2018-09-21T08:51:13.744Z,23.40
2018-09-21T08:56:17.472Z,23.40
2018-09-21T09:01:20.929Z,23.30
2018-09-21T09:06:24.246Z,23.40
2018-09-21T09:11:27.580Z,23.40
2018-09-21T09:16:30.871Z,23.10
2018-09-21T09:21:34.168Z,23.50
2018-09-21T09:26:37.497Z,23.50
2018-09-21T09:31:40.888Z,23.50
2018-09-21T09:36:44.217Z,23.50
2018-09-21T09:41:47.591Z,23.50
2018-09-21T09:46:50.880Z,23.50
2018-09-21T09:51:54.528Z,23.50
2018-09-21T09:56:57.814Z,23.50
2018-09-21T10:02:01.103Z,23.50
2018-09-21T10:07:04.441Z,23.10
2018-09-21T10:12:07.717Z,23.10
2018-09-21T10:17:11.014Z,23.30
2018-09-21T10:22:14.284Z,23.10
2018-09-21T10:27:17.716Z,23.00
2018-09-21T10:32:20.964Z,23.20
2018-09-21T10:37:24.296Z,23.20
2018-09-21T10:42:27.572Z,23.20
2018-09-21T10:47:30.796Z,23.30
2018-09-21T10:52:34.091Z,23.10
2018-09-21T10:57:37.288Z,22.80
2018-09-21T11:02:40.615Z,22.90
2018-09-21T11:07:43.891Z,22.70
2018-09-21T11:12:47.127Z,22.40
2018-09-21T11:17:50.373Z,22.70
2018-09-21T11:22:54.464Z,22.70
2018-09-21T11:27:57.692Z,22.60
2018-09-21T11:33:01.510Z,22.40
2018-09-21T11:38:05.377Z,22.40
2018-09-21T11:43:08.627Z,22.50
2018-09-21T11:48:12.099Z,22.50
2018-09-21T11:53:15.804Z,22.20
2018-09-21T11:58:19.140Z,22.00
2018-09-21T12:03:22.375Z,22.20
2018-09-21T12:08:25.612Z,22.30
2018-09-21T12:13:28.936Z,22.20
2018-09-21T12:18:32.471Z,22.50
2018-09-21T12:23:35.741Z,22.40
2018-09-21T12:28:39.325Z,22.50
2018-09-21T12:33:42.881Z,22.40
2018-09-21T12:38:46.225Z,22.50
2018-09-21T12:43:49.472Z,22.30
2018-09-21T12:48:54.888Z,22.20
2018-09-21T12:53:58.162Z,22.50
2018-09-21T12:59:01.794Z,22.40
2018-09-21T13:04:05.310Z,22.40
2018-09-21T13:09:08.911Z,22.20
2018-09-21T13:14:12.235Z,22.50
2018-09-21T13:19:15.552Z,22.50
2018-09-21T13:24:18.883Z,22.20
2018-09-21T13:29:22.488Z,22.30
2018-09-21T13:34:25.824Z,22.10
2018-09-21T13:39:29.624Z,22.30
2018-09-21T13:44:32.964Z,22.20
2018-09-21T13:49:36.422Z,22.20
2018-09-21T13:54:39.725Z,22.20
2018-09-21T13:59:43.071Z,22.50
2018-09-21T14:04:46.550Z,22.30
2018-09-21T14:09:49.951Z,22.30
2018-09-21T14:14:53.251Z,22.30
2018-09-21T14:19:56.873Z,22.50
2018-09-21T14:25:00.340Z,22.30
2018-09-21T14:30:03.747Z,22.20
2018-09-21T14:35:07.348Z,22.30
2018-09-21T14:40:10.807Z,22.30
2018-09-21T14:45:14.116Z,22.30
2018-09-21T14:50:17.872Z,22.30
2018-09-21T14:55:21.168Z,22.50
2018-09-21T15:00:24.418Z,22.20
2018-09-21T15:05:29.617Z,22.30
2018-09-21T15:10:32.947Z,22.20
2018-09-21T15:15:36.217Z,22.50
2018-09-21T15:20:39.465Z,22.20
2018-09-21T15:25:42.700Z,22.20
2018-09-21T15:30:45.917Z,22.20
2018-09-21T15:35:49.984Z,22.20
2018-09-21T15:40:53.236Z,22.30
2018-09-21T15:45:56.744Z,22.10
2018-09-21T15:51:00.064Z,22.10
2018-09-21T15:56:03.358Z,21.90
2018-09-21T16:01:06.728Z,22.30
2018-09-21T16:06:10.048Z,21.80
2018-09-21T16:11:13.260Z,22.00
2018-09-21T16:16:16.509Z,21.80
2018-09-21T16:21:19.779Z,22.00
2018-09-21T16:26:23.129Z,22.40
2018-09-21T16:31:26.444Z,22.00
2018-09-21T16:36:29.741Z,21.90
2018-09-21T16:41:32.991Z,22.00
2018-09-21T16:46:36.564Z,21.90
2018-09-21T17:01:13.924Z,21.90
2018-09-21T17:06:17.187Z,21.40
2018-09-21T17:11:20.529Z,21.60
2018-09-21T17:16:23.696Z,21.70
2018-09-21T17:21:26.906Z,21.50
2018-09-21T17:26:30.140Z,21.70
2018-09-21T17:31:33.423Z,21.70
2018-09-21T17:36:36.621Z,21.60
2018-09-21T17:41:39.900Z,21.60
2018-09-21T17:46:43.240Z,21.70
2018-09-21T17:51:46.602Z,23.00
2018-09-21T17:56:49.869Z,23.90
2018-09-21T18:01:53.181Z,23.10
2018-09-21T18:06:56.476Z,22.40
2018-09-21T18:11:59.820Z,22.30
2018-09-21T18:17:03.043Z,22.00
2018-09-21T18:22:06.360Z,21.80
2018-09-21T18:27:10.385Z,21.80
2018-09-21T18:32:13.653Z,21.60
2018-09-21T18:37:16.989Z,21.50
2018-09-21T18:42:20.204Z,21.50
2018-09-21T18:47:23.452Z,21.20
2018-09-21T18:52:26.688Z,21.30
2018-09-21T18:57:29.883Z,21.30
2018-09-21T19:02:33.124Z,21.30
2018-09-21T19:07:36.355Z,21.10
2018-09-21T19:12:39.580Z,21.00
2018-09-21T19:17:42.807Z,20.90
2018-09-21T19:22:46.053Z,20.70
2018-09-21T19:27:49.327Z,21.00
2018-09-21T19:32:52.604Z,20.80
2018-09-21T19:37:55.892Z,20.80
2018-09-21T19:42:59.202Z,20.80
2018-09-21T19:48:02.476Z,20.80
2018-09-21T19:53:05.820Z,20.60
2018-09-21T19:58:09.913Z,20.80
2018-09-21T20:03:13.175Z,20.60
2018-09-21T20:08:16.476Z,20.60
2018-09-21T20:13:19.855Z,20.50
2018-09-21T20:18:23.464Z,20.40
2018-09-21T20:23:26.743Z,20.20
2018-09-21T20:28:30.107Z,20.40
2018-09-21T20:33:34.512Z,20.30
2018-09-21T20:38:37.795Z,20.10
2018-09-21T20:43:41.059Z,20.30
2018-09-21T20:48:44.314Z,20.20
2018-09-21T20:53:47.564Z,20.30
2018-09-21T20:58:50.872Z,20.20
2018-09-21T21:03:54.163Z,20.30
2018-09-21T21:08:57.432Z,20.30
2018-09-21T21:14:00.712Z,20.00
2018-09-21T21:19:04.012Z,20.10
2018-09-21T21:24:07.372Z,20.20
2018-09-21T21:29:10.778Z,20.10
2018-09-21T21:34:14.068Z,20.00
2018-09-21T21:39:17.375Z,20.20
2018-09-21T21:44:20.647Z,20.10
2018-09-21T21:49:23.928Z,20.10
2018-09-21T21:54:27.192Z,20.30
2018-09-21T21:59:30.516Z,20.00
2018-09-21T22:04:33.813Z,20.20
2018-09-21T22:09:37.096Z,20.10
2018-09-21T22:14:40.377Z,19.90
2018-09-21T22:19:43.696Z,20.00
2018-09-21T22:24:46.980Z,20.20
2018-09-21T22:29:50.365Z,20.20
2018-09-21T22:34:53.636Z,20.00
2018-09-21T22:39:56.940Z,20.10
2018-09-21T22:45:00.181Z,20.10
2018-09-21T22:50:03.491Z,20.20
2018-09-21T22:55:06.752Z,20.00
2018-09-21T23:00:10.041Z,20.20
2018-09-21T23:05:13.247Z,20.20
2018-09-21T23:10:16.476Z,20.10
2018-09-21T23:15:19.720Z,20.10
2018-09-21T23:20:22.944Z,20.10
2018-09-21T23:25:26.164Z,20.20
2018-09-21T23:30:29.460Z,20.10
2018-09-21T23:35:32.750Z,20.10
2018-09-21T23:40:36.043Z,20.40
2018-09-21T23:45:39.307Z,19.90
2018-09-21T23:50:43.655Z,19.80
2018-09-21T23:55:46.923Z,20.10
